Time;durP1;ratioP1;P1;durP2;ratioP2;P2;SDS_P1;SDS_P2;PMS_P1;PMS_P2;Temp;Humidity;BMP_temperature;BMP_pressure;BME280_temperature;BME280_humidity;BME280_pressure;Samples;Min_cycle;Max_cycle;Signal;HPM_P1;HPM_P2
2022/12/24 00:00:23;;;;;;;12.65;8.85;;;11.80;99.90;;;;;;4858284;29;20088;-76
2022/12/24 00:02:50;;;;;;;11.18;7.68;;;11.80;99.90;;;;;;4842960;29;20082;-76
2022/12/24 00:05:15;;;;;;;10.77;6.80;;;11.90;99.90;;;;;;4858108;29;20502;-76
2022/12/24 00:07:41;;;;;;;7.90;5.88;;;11.80;99.90;;;;;;4857803;29;20055;-77
2022/12/24 00:10:08;;;;;;;7.47;5.68;;;12.40;99.90;;;;;;4842565;29;20129;-77
2022/12/24 00:12:34;;;;;;;10.30;7.30;;;12.60;99.90;;;;;;4857682;29;20086;-77
2022/12/24 00:15:01;;;;;;;10.35;7.20;;;12.50;99.90;;;;;;4857460;29;20045;-76
2022/12/24 00:17:26;;;;;;;10.23;7.00;;;12.30;99.90;;;;;;4842392;29;20061;-76
2022/12/24 00:19:52;;;;;;;12.25;8.93;;;12.50;99.90;;;;;;4842569;29;20049;-77
2022/12/24 00:22:17;;;;;;;10.95;7.75;;;12.20;99.90;;;;;;4858219;29;20054;-76
2022/12/24 00:24:43;;;;;;;13.07;8.48;;;11.90;99.90;;;;;;4858461;29;20128;-77
2022/12/24 00:27:09;;;;;;;12.90;9.18;;;12.60;99.90;;;;;;4857079;29;20057;-78
2022/12/24 00:29:34;;;;;;;11.32;7.93;;;12.60;99.90;;;;;;4842312;29;20053;-77
2022/12/24 00:32:00;;;;;;;11.07;7.70;;;11.80;99.90;;;;;;4852602;29;20061;-77
2022/12/24 00:34:26;;;;;;;10.25;6.63;;;12.60;99.90;;;;;;4839330;29;20050;-76
2022/12/24 00:36:52;;;;;;;9.02;6.57;;;12.00;99.90;;;;;;4823785;29;20065;-77
2022/12/24 00:39:17;;;;;;;7.95;5.88;;;12.40;99.90;;;;;;4849872;29;20186;-77
2022/12/24 00:41:43;;;;;;;8.30;6.18;;;12.10;99.90;;;;;;4857593;29;20037;-77
2022/12/24 00:44:10;;;;;;;7.45;5.40;;;12.00;99.90;;;;;;4857113;29;20120;-77
2022/12/24 00:46:38;;;;;;;7.63;5.75;;;12.50;99.90;;;;;;4857873;29;20153;-77
2022/12/24 00:49:04;;;;;;;7.40;5.07;;;12.00;99.90;;;;;;4858980;29;20105;-77
2022/12/24 00:51:31;;;;;;;6.68;4.68;;;11.80;99.90;;;;;;4842889;29;20129;-77
2022/12/24 00:53:56;;;;;;;6.47;4.47;;;12.10;99.90;;;;;;4857095;29;20050;-77
2022/12/24 00:56:22;;;;;;;6.22;4.50;;;12.60;99.90;;;;;;4838787;29;20100;-77
2022/12/24 00:58:48;;;;;;;7.05;4.53;;;11.90;99.90;;;;;;4838992;29;20041;-78
2022/12/24 01:01:15;;;;;;;5.20;3.60;;;12.40;99.90;;;;;;4838814;29;20057;-77
2022/12/24 01:03:41;;;;;;;4.72;3.60;;;12.60;99.90;;;;;;4839458;29;20050;-77
2022/12/24 01:06:10;;;;;;;4.05;3.15;;;11.90;99.90;;;;;;4793006;29;20050;-71
2022/12/24 01:08:36;;;;;;;4.63;3.60;;;11.90;99.90;;;;;;4838011;29;20077;-71
2022/12/24 01:11:03;;;;;;;7.22;4.97;;;12.10;99.90;;;;;;4838439;29;20046;-71
2022/12/24 01:13:29;;;;;;;9.65;6.38;;;11.90;99.90;;;;;;4849017;29;20482;-71
2022/12/24 01:15:55;;;;;;;10.18;7.90;;;12.00;99.90;;;;;;4856871;29;20074;-71
2022/12/24 01:18:20;;;;;;;13.80;9.45;;;12.00;99.90;;;;;;4841095;29;20124;-71
2022/12/24 01:20:58;;;;;;;12.63;8.30;;;12.00;99.90;;;;;;4857813;29;20046;-71
2022/12/24 01:23:24;;;;;;;11.77;8.05;;;12.50;99.90;;;;;;4856411;29;20072;-71
2022/12/24 01:25:50;;;;;;;11.57;7.78;;;12.80;99.90;;;;;;4856529;29;20529;-71
2022/12/24 01:28:16;;;;;;;11.30;7.85;;;11.80;99.90;;;;;;4841087;29;20175;-71
2022/12/24 01:30:42;;;;;;;12.15;8.40;;;11.80;99.90;;;;;;4858205;29;20085;-71
2022/12/24 01:33:07;;;;;;;9.85;6.88;;;11.80;99.90;;;;;;4861196;29;20071;-71
2022/12/24 01:35:33;;;;;;;7.60;5.30;;;12.70;99.90;;;;;;4859868;29;20061;-71
2022/12/24 01:37:59;;;;;;;5.93;4.60;;;12.20;99.90;;;;;;4858464;29;20077;-71
2022/12/24 01:43:23;;;;;;;9.27;6.53;;;11.90;99.90;;;;;;4859513;29;20085;-71
2022/12/24 01:45:52;;;;;;;8.63;5.85;;;12.00;99.90;;;;;;4843122;29;20053;-71
2022/12/24 01:48:38;;;;;;;8.27;5.28;;;12.10;99.90;;;;;;4858317;29;20120;-71
2022/12/24 01:51:35;;;;;;;7.72;5.72;;;12.70;99.90;;;;;;4859390;29;20117;-71
2022/12/24 01:54:25;;;;;;;6.72;4.75;;;12.60;99.90;;;;;;4854556;29;20062;-71
2022/12/24 01:57:03;;;;;;;4.85;3.50;;;12.70;99.90;;;;;;4859589;29;20113;-71
2022/12/24 01:59:29;;;;;;;4.43;3.13;;;12.70;99.90;;;;;;4859407;29;20085;-71
2022/12/24 02:01:55;;;;;;;3.28;2.40;;;12.40;99.90;;;;;;4859177;29;20141;-71
2022/12/24 02:04:32;;;;;;;3.85;2.47;;;12.10;99.90;;;;;;4858485;29;20045;-71
2022/12/24 02:06:58;;;;;;;2.92;2.20;;;12.10;99.90;;;;;;4858476;29;20093;-71
2022/12/24 02:09:24;;;;;;;2.70;2.10;;;12.40;99.90;;;;;;4856972;29;20058;-71
2022/12/24 02:11:50;;;;;;;2.95;1.90;;;12.70;99.90;;;;;;4843751;29;20046;-71
2022/12/24 02:14:16;;;;;;;2.53;1.88;;;11.90;99.90;;;;;;4857670;29;20049;-71
2022/12/24 02:17:07;;;;;;;2.63;2.10;;;12.50;99.90;;;;;;4857879;29;20048;-71
2022/12/24 02:20:10;;;;;;;3.05;2.08;;;12.30;99.90;;;;;;4841279;29;20583;-71
2022/12/24 02:22:59;;;;;;;2.45;1.65;;;11.90;99.90;;;;;;4857931;29;20096;-70
2022/12/24 02:25:50;;;;;;;2.33;1.70;;;12.60;99.90;;;;;;4857102;29;20049;-71
2022/12/24 02:28:32;;;;;;;2.40;1.80;;;11.90;99.90;;;;;;4857810;29;20498;-70
2022/12/24 02:31:03;;;;;;;2.92;1.90;;;12.80;99.90;;;;;;4855715;29;20449;-71
2022/12/24 02:33:36;;;;;;;2.28;1.70;;;12.20;99.90;;;;;;4833722;29;20053;-71
2022/12/24 02:36:08;;;;;;;1.73;1.30;;;12.80;99.90;;;;;;4849049;29;20054;-71
2022/12/24 02:38:40;;;;;;;1.83;1.35;;;12.70;99.90;;;;;;4858827;29;20048;-71
2022/12/24 02:42:04;;;;;;;4.22;2.67;;;12.60;99.90;;;;;;4842051;29;20065;-71
2022/12/24 02:44:18;;;;;;;3.08;2.35;;;12.50;99.90;;;;;;4858625;29;20486;-71
2022/12/24 02:46:45;;;;;;;2.45;1.83;;;12.60;99.90;;;;;;4858321;29;20069;-71
2022/12/24 02:49:12;;;;;;;2.70;1.80;;;12.70;99.90;;;;;;4857865;29;20445;-72
2022/12/24 02:51:38;;;;;;;2.70;2.00;;;12.80;99.90;;;;;;4857642;29;20078;-71
2022/12/24 02:54:03;;;;;;;2.63;1.80;;;11.90;99.90;;;;;;4858425;29;20141;-71
2022/12/24 02:57:02;;;;;;;4.03;2.72;;;12.00;99.90;;;;;;4829846;29;20053;-71
2022/12/24 02:59:58;;;;;;;2.80;2.10;;;11.90;99.90;;;;;;4839800;29;20078;-71
2022/12/24 03:02:30;;;;;;;4.05;2.72;;;12.30;99.90;;;;;;4855712;29;20046;-71
2022/12/24 03:05:01;;;;;;;3.97;2.80;;;12.70;99.90;;;;;;4856613;29;20101;-71
2022/12/24 03:07:54;;;;;;;5.07;3.65;;;12.00;99.90;;;;;;4856309;29;20788;-70
2022/12/24 03:10:41;;;;;;;4.50;3.10;;;12.10;99.90;;;;;;4858187;29;20116;-70
2022/12/24 03:13:12;;;;;;;7.88;5.03;;;12.60;99.90;;;;;;4840006;29;20355;-70
2022/12/24 03:15:40;;;;;;;6.57;4.93;;;13.10;99.90;;;;;;4857549;29;20364;-71
2022/12/24 03:18:09;;;;;;;8.80;6.13;;;12.30;99.90;;;;;;4858432;29;20128;-71
2022/12/24 03:20:40;;;;;;;9.55;6.70;;;12.40;99.90;;;;;;4856435;29;20041;-71
2022/12/24 03:23:07;;;;;;;9.82;6.55;;;13.20;99.90;;;;;;4841616;29;20053;-71
2022/12/24 03:25:34;;;;;;;11.27;8.10;;;13.50;99.90;;;;;;4841150;29;20045;-71
2022/12/24 03:28:03;;;;;;;15.07;10.38;;;13.20;99.90;;;;;;4857927;29;20148;-71
2022/12/24 03:30:29;;;;;;;12.88;9.63;;;12.90;99.90;;;;;;4857391;29;20127;-71
2022/12/24 03:32:55;;;;;;;9.98;7.80;;;13.30;99.90;;;;;;4838815;29;20052;-71
2022/12/24 03:35:21;;;;;;;14.60;10.05;;;12.80;99.90;;;;;;4841860;29;20128;-71
2022/12/24 03:37:46;;;;;;;14.27;9.38;;;13.60;99.90;;;;;;4837047;29;20117;-71
2022/12/24 03:40:12;;;;;;;14.70;8.82;;;13.20;99.90;;;;;;4839619;29;20097;-71
2022/12/24 03:42:38;;;;;;;14.10;9.02;;;14.10;99.90;;;;;;4842176;29;20052;-71
2022/12/24 03:45:04;;;;;;;15.23;8.43;;;14.00;99.90;;;;;;4856593;29;20129;-71
2022/12/24 03:47:30;;;;;;;;;;;13.20;99.90;;;;;;4858736;29;20053;-71
2022/12/24 03:49:56;;;;;;;13.95;7.53;;;14.10;99.90;;;;;;4838324;29;20273;-71
2022/12/24 03:52:21;;;;;;;11.95;7.50;;;13.30;99.90;;;;;;4847515;29;20088;-71
2022/12/24 03:54:47;;;;;;;10.55;6.85;;;13.50;99.90;;;;;;4842214;29;20052;-71
2022/12/24 03:57:13;;;;;;;15.65;7.80;;;14.20;99.90;;;;;;4856189;29;20125;-71
2022/12/24 03:59:38;;;;;;;12.43;6.72;;;13.40;99.90;;;;;;4842045;29;20042;-70
2022/12/24 04:02:04;;;;;;;13.57;7.32;;;13.70;99.90;;;;;;4855787;29;20052;-71
2022/12/24 04:04:32;;;;;;;12.57;6.95;;;14.10;99.90;;;;;;4856161;29;20501;-71
2022/12/24 04:06:58;;;;;;;15.35;6.88;;;13.50;99.90;;;;;;4856309;29;20041;-71
2022/12/24 04:09:24;;;;;;;9.88;5.72;;;13.40;99.90;;;;;;4841969;29;20060;-71
2022/12/24 04:11:49;;;;;;;8.23;5.28;;;13.40;99.90;;;;;;4840222;29;20033;-72
2022/12/24 04:14:15;;;;;;;10.20;6.25;;;14.00;99.90;;;;;;4857039;29;20049;-72
2022/12/24 04:16:41;;;;;;;11.02;6.78;;;14.00;99.90;;;;;;4840820;29;20134;-72
2022/12/24 04:19:06;;;;;;;11.27;6.45;;;14.00;99.90;;;;;;4855306;29;20049;-72
2022/12/24 04:21:32;;;;;;;9.77;6.53;;;13.80;99.90;;;;;;4837305;29;20046;-72
2022/12/24 04:23:58;;;;;;;14.63;7.13;;;13.90;99.90;;;;;;4856636;29;20069;-72
2022/12/24 04:26:24;;;;;;;11.50;5.78;;;13.30;99.90;;;;;;4855089;29;20060;-72
2022/12/24 04:28:50;;;;;;;10.48;5.95;;;14.00;99.90;;;;;;4856271;29;20494;-71
2022/12/24 04:31:16;;;;;;;9.88;5.68;;;13.90;99.90;;;;;;4857379;29;20129;-72
2022/12/24 04:33:42;;;;;;;;;;;13.40;99.90;;;;;;4855891;29;20053;-72
2022/12/24 04:36:11;;;;;;;13.10;5.60;;;14.00;99.90;;;;;;4856414;29;19920;-72
2022/12/24 04:38:37;;;;;;;13.73;5.25;;;14.20;99.90;;;;;;4856106;29;20049;-72
2022/12/24 04:41:09;;;;;;;20.88;5.20;;;13.50;99.90;;;;;;4826629;29;20056;-72
2022/12/24 04:43:35;;;;;;;14.75;4.28;;;14.20;99.90;;;;;;4856549;29;20105;-72
2022/12/24 04:46:10;;;;;;;16.35;4.32;;;14.20;99.90;;;;;;4839081;29;20430;-72
2022/12/24 04:48:36;;;;;;;18.33;3.85;;;13.50;99.90;;;;;;4855610;29;20058;-72
2022/12/24 04:51:03;;;;;;;14.10;3.42;;;13.50;99.90;;;;;;4844567;29;20049;-72
2022/12/24 04:53:30;;;;;;;14.95;3.30;;;13.90;99.90;;;;;;4855565;29;20049;-72
2022/12/24 04:55:56;;;;;;;;;;;13.80;99.90;;;;;;4854626;29;20037;-72
2022/12/24 04:58:22;;;;;;;18.88;4.00;;;13.50;99.90;;;;;;4856163;29;20376;-72
2022/12/24 05:00:48;;;;;;;24.40;4.50;;;13.80;99.90;;;;;;4826307;29;20610;-72
2022/12/24 05:03:14;;;;;;;14.70;3.15;;;13.50;99.90;;;;;;4840494;29;20128;-72
2022/12/24 05:05:40;;;;;;;17.77;3.45;;;13.00;99.90;;;;;;4828008;29;20054;-72
2022/12/24 05:08:05;;;;;;;14.75;2.85;;;13.50;99.90;;;;;;4840164;29;20486;-72
2022/12/24 05:10:31;;;;;;;22.73;3.70;;;13.60;99.90;;;;;;4827371;29;20049;-72
2022/12/24 05:12:57;;;;;;;22.90;3.65;;;13.40;99.90;;;;;;4855128;29;20061;-72
2022/12/24 05:15:22;;;;;;;19.15;3.45;;;13.00;99.90;;;;;;4859643;29;20501;-72
2022/12/24 05:17:48;;;;;;;25.02;4.25;;;13.50;99.90;;;;;;4860270;29;20049;-72
2022/12/24 05:20:14;;;;;;;19.00;2.92;;;12.80;99.90;;;;;;4859338;29;20060;-72
2022/12/24 05:28:16;;;;;;;17.35;3.10;;;13.40;99.90;;;;;;4859043;29;20061;-72
2022/12/24 05:30:42;;;;;;;14.95;2.90;;;12.90;99.90;;;;;;4844085;29;20045;-72
2022/12/24 05:33:07;;;;;;;16.17;2.90;;;12.90;99.90;;;;;;4858733;29;20049;-72
2022/12/24 05:35:33;;;;;;;12.10;3.33;;;12.60;99.90;;;;;;4859772;29;20041;-72
2022/12/24 05:37:59;;;;;;;17.10;3.53;;;13.20;99.90;;;;;;4856176;29;20054;-72
2022/12/24 05:40:25;;;;;;;23.65;3.85;;;13.00;99.90;;;;;;4825822;29;20064;-72
2022/12/24 05:42:50;;;;;;;20.75;3.58;;;12.50;99.90;;;;;;4855813;29;20065;-72
2022/12/24 05:45:16;;;;;;;13.82;2.63;;;12.50;99.90;;;;;;4859603;29;20049;-72
2022/12/24 05:47:42;;;;;;;12.23;2.67;;;12.80;99.90;;;;;;4857915;29;20049;-72
2022/12/24 05:50:08;;;;;;;15.57;2.75;;;12.50;99.90;;;;;;4859486;29;20056;-72
2022/12/24 05:52:34;;;;;;;;;;;12.50;99.90;;;;;;4840448;29;20053;-72
2022/12/24 05:54:59;;;;;;;10.88;2.40;;;12.70;99.90;;;;;;4847469;29;20019;-72
2022/12/24 05:57:25;;;;;;;18.45;2.80;;;12.40;99.90;;;;;;4858784;29;20064;-72
2022/12/24 05:59:51;;;;;;;12.25;2.67;;;12.80;99.90;;;;;;4859698;29;20421;-72
2022/12/24 06:02:16;;;;;;;19.95;3.28;;;12.90;99.90;;;;;;4857275;29;20082;-72
2022/12/24 06:04:42;;;;;;;16.17;3.05;;;12.90;99.90;;;;;;4859760;29;20057;-72
2022/12/24 06:07:07;;;;;;;20.13;3.47;;;12.70;99.90;;;;;;4857682;29;20580;-72
2022/12/24 06:09:33;;;;;;;17.00;2.90;;;12.60;99.90;;;;;;4843783;29;20421;-72
2022/12/24 06:11:59;;;;;;;19.88;3.30;;;12.90;99.90;;;;;;4843335;29;20049;-72
2022/12/24 06:14:24;;;;;;;23.92;4.22;;;12.50;99.90;;;;;;4859112;29;20427;-72
2022/12/24 06:16:50;;;;;;;15.52;2.90;;;12.70;99.90;;;;;;4839298;29;20089;-72
2022/12/24 06:19:16;;;;;;;12.07;2.35;;;12.40;99.90;;;;;;4858994;29;20046;-72
2022/12/24 06:21:42;;;;;;;13.98;2.75;;;12.60;99.90;;;;;;4857230;29;20136;-72
2022/12/24 06:24:07;;;;;;;15.32;3.00;;;12.30;99.90;;;;;;4843502;29;20045;-72
2022/12/24 06:26:33;;;;;;;11.85;2.83;;;12.40;99.90;;;;;;4857356;29;20041;-72
2022/12/24 06:28:59;;;;;;;15.18;2.80;;;12.80;99.90;;;;;;4860239;29;20081;-72
2022/12/24 06:31:24;;;;;;;13.20;2.63;;;12.70;99.90;;;;;;4857290;29;20469;-72
2022/12/24 06:33:51;;;;;;;16.55;3.75;;;12.30;99.90;;;;;;4857883;29;20557;-72
2022/12/24 06:36:20;;;;;;;16.35;3.35;;;12.70;99.90;;;;;;4858385;29;20124;-72
2022/12/24 06:38:46;;;;;;;21.25;3.38;;;12.80;99.90;;;;;;4843075;29;20146;-72
2022/12/24 06:41:13;;;;;;;18.20;3.47;;;12.20;99.90;;;;;;4857014;29;20136;-72
2022/12/24 06:43:41;;;;;;;21.30;3.33;;;12.30;99.90;;;;;;4856820;29;20042;-72
2022/12/24 06:46:07;;;;;;;14.95;3.20;;;12.50;99.90;;;;;;4827386;29;20057;-72
2022/12/24 06:48:33;;;;;;;16.02;2.80;;;12.20;99.90;;;;;;4839839;29;20045;-72
2022/12/24 06:51:01;;;;;;;9.07;2.70;;;12.80;99.90;;;;;;4856903;29;20060;-77
2022/12/24 06:53:27;;;;;;;10.13;2.67;;;12.70;99.90;;;;;;4857805;29;20065;-76
2022/12/24 06:55:59;;;;;;;18.27;3.45;;;12.80;99.90;;;;;;4858906;29;20045;-77
2022/12/24 06:58:25;;;;;;;12.63;3.22;;;12.50;99.90;;;;;;4856673;29;20045;-77
2022/12/24 07:00:50;;;;;;;16.30;3.38;;;12.70;99.90;;;;;;4857329;29;20048;-77
2022/12/24 07:03:16;;;;;;;18.48;3.63;;;12.10;99.90;;;;;;4857958;29;20058;-77
2022/12/24 07:05:42;;;;;;;17.25;3.60;;;12.70;99.90;;;;;;4842670;29;20049;-77
2022/12/24 07:08:08;;;;;;;14.70;3.40;;;12.20;99.90;;;;;;4855513;29;20501;-77
2022/12/24 07:10:33;;;;;;;19.92;3.42;;;12.60;99.90;;;;;;4855572;29;20493;-76
2022/12/24 07:12:59;;;;;;;16.05;3.30;;;12.50;99.90;;;;;;4851552;29;20055;-76
2022/12/24 07:15:25;;;;;;;18.58;3.33;;;12.10;99.90;;;;;;4857154;29;20041;-75
2022/12/24 07:17:50;;;;;;;18.17;3.70;;;12.60;99.90;;;;;;4857960;29;20083;-76
2022/12/24 07:20:16;;;;;;;17.30;3.30;;;12.60;99.90;;;;;;4856174;29;20038;-76
2022/12/24 07:22:42;;;;;;;19.83;3.25;;;12.00;99.90;;;;;;4846753;29;20041;-77
2022/12/24 07:25:09;;;;;;;16.40;3.08;;;12.00;99.90;;;;;;4844960;29;20042;-76
2022/12/24 07:27:35;;;;;;;14.27;3.00;;;12.40;99.90;;;;;;4833140;29;20042;-78
2022/12/24 07:30:02;;;;;;;14.40;2.53;;;12.20;99.90;;;;;;4856836;29;20504;-76
2022/12/24 07:32:27;;;;;;;22.67;3.55;;;12.30;99.90;;;;;;4854275;29;20053;-76
2022/12/24 07:34:53;;;;;;;13.00;3.17;;;11.70;99.90;;;;;;4826569;29;20065;-76
2022/12/24 07:37:19;;;;;;;24.45;4.15;;;12.00;99.90;;;;;;4857218;29;20561;-76
2022/12/24 07:39:44;;;;;;;16.45;3.45;;;11.90;99.90;;;;;;4825094;29;20396;-77
2022/12/24 07:42:10;;;;;;;23.58;4.18;;;12.00;99.90;;;;;;4843351;29;20572;-75
2022/12/24 07:44:36;;;;;;;15.48;3.30;;;11.70;99.90;;;;;;4854894;29;20045;-76
2022/12/24 07:47:01;;;;;;;19.40;3.53;;;12.20;99.90;;;;;;4856827;29;20053;-76
2022/12/24 07:49:27;;;;;;;17.58;4.25;;;12.20;99.90;;;;;;4838753;29;20049;-76
2022/12/24 07:51:53;;;;;;;16.92;3.30;;;12.30;99.90;;;;;;4841263;29;20043;-77
2022/12/24 07:54:18;;;;;;;16.38;3.72;;;11.70;99.90;;;;;;4840898;29;20793;-78
2022/12/24 07:56:44;;;;;;;16.17;3.22;;;12.10;99.90;;;;;;4848585;29;20121;-77
2022/12/24 07:59:12;;;;;;;16.15;3.40;;;12.10;99.90;;;;;;4856228;29;20454;-76
2022/12/24 08:01:38;;;;;;;19.27;3.40;;;11.70;99.90;;;;;;4855077;29;20049;-76
2022/12/24 08:04:04;;;;;;;12.52;3.03;;;12.10;99.90;;;;;;4857501;29;20079;-77
2022/12/24 08:06:29;;;;;;;14.50;2.88;;;11.80;99.90;;;;;;4857380;29;20109;-77
2022/12/24 08:08:55;;;;;;;22.48;3.97;;;12.20;99.90;;;;;;4830296;29;20498;-77
2022/12/24 08:11:21;;;;;;;20.35;3.65;;;12.00;99.90;;;;;;4848374;29;20041;-76
2022/12/24 08:13:46;;;;;;;23.88;3.78;;;12.30;99.90;;;;;;4856096;29;20053;-77
2022/12/24 08:16:12;;;;;;;12.45;2.75;;;12.30;99.90;;;;;;4857832;29;20077;-77
2022/12/24 08:18:38;;;;;;;17.77;3.63;;;12.00;99.90;;;;;;4829651;29;20865;-78
2022/12/24 08:21:07;;;;;;;19.17;3.42;;;12.50;99.90;;;;;;4828370;29;20033;-77
2022/12/24 08:23:33;;;;;;;16.27;2.72;;;12.10;99.90;;;;;;4853426;29;20049;-76
2022/12/24 08:25:59;;;;;;;19.33;3.80;;;12.40;99.90;;;;;;4858250;29;20128;-76
2022/12/24 08:28:24;;;;;;;10.95;2.50;;;12.00;99.90;;;;;;4857898;29;20128;-77
2022/12/24 08:30:51;;;;;;;20.95;3.60;;;12.00;99.90;;;;;;4852613;29;20049;-77
2022/12/24 08:33:17;;;;;;;19.15;3.03;;;12.00;99.90;;;;;;4854483;29;20489;-77
2022/12/24 08:35:51;;;;;;;18.00;3.58;;;12.30;99.90;;;;;;4852562;29;20140;-78
2022/12/24 08:38:17;;;;;;;23.85;4.07;;;12.20;99.90;;;;;;4838917;29;20076;-78
2022/12/24 08:40:46;;;;;;;19.42;4.38;;;12.20;99.90;;;;;;4857210;29;20140;-77
2022/12/24 08:43:11;;;;;;;21.15;4.57;;;12.20;99.90;;;;;;4858371;29;20061;-77
2022/12/24 08:45:38;;;;;;;19.73;3.95;;;12.50;99.90;;;;;;4846473;29;20066;-78
2022/12/24 08:48:05;;;;;;;20.52;4.07;;;12.10;99.90;;;;;;4860340;29;20049;-79
2022/12/24 08:50:30;;;;;;;;;;;12.60;99.90;;;;;;4837593;29;20071;-79
2022/12/24 08:52:56;;;;;;;20.70;4.05;;;12.10;99.90;;;;;;4858611;29;19959;-78
2022/12/24 08:55:22;;;;;;;18.52;3.85;;;12.10;99.90;;;;;;4857185;29;20045;-79
2022/12/24 08:57:47;;;;;;;18.95;3.83;;;12.10;99.90;;;;;;4830446;29;20045;-79
2022/12/24 09:00:13;;;;;;;15.30;3.38;;;12.40;99.90;;;;;;4840344;29;20048;-80
2022/12/24 09:02:39;;;;;;;13.30;2.80;;;12.40;99.90;;;;;;4857885;29;20792;-78
2022/12/24 09:05:05;;;;;;;21.30;3.75;;;12.40;99.90;;;;;;4839189;29;20140;-78
2022/12/24 09:07:31;;;;;;;15.65;4.05;;;12.70;99.90;;;;;;4857706;29;20076;-80
2022/12/24 09:09:56;;;;;;;15.63;3.40;;;12.60;99.90;;;;;;4856381;29;20431;-77
2022/12/24 09:12:22;;;;;;;19.70;3.30;;;12.60;99.90;;;;;;4846048;29;20050;-76
2022/12/24 09:14:50;;;;;;;20.35;3.85;;;12.60;99.90;;;;;;4840335;29;20054;-76
2022/12/24 09:17:16;;;;;;;21.45;4.15;;;12.30;99.90;;;;;;4841165;29;20049;-77
2022/12/24 09:19:42;;;;;;;16.40;3.60;;;12.60;99.90;;;;;;4841676;29;20050;-76
2022/12/24 09:22:08;;;;;;;10.45;2.88;;;12.40;99.90;;;;;;4825233;29;20045;-76
2022/12/24 09:24:35;;;;;;;19.05;3.35;;;12.80;99.90;;;;;;4858826;29;20124;-76
2022/12/24 09:27:01;;;;;;;15.23;3.45;;;12.40;99.90;;;;;;4861853;29;20053;-76
2022/12/24 09:29:27;;;;;;;17.75;3.53;;;12.80;99.90;;;;;;4845850;29;20117;-75
2022/12/24 09:31:54;;;;;;;17.67;3.15;;;12.30;99.90;;;;;;4860906;29;20034;-76
2022/12/24 09:34:19;;;;;;;;;;;12.70;99.90;;;;;;4830741;29;20413;-75
2022/12/24 09:36:45;;;;;;;18.02;3.70;;;12.50;99.90;;;;;;4860207;29;19999;-75
2022/12/24 09:39:11;;;;;;;26.63;3.97;;;12.70;99.90;;;;;;4860285;29;20053;-76
2022/12/24 09:42:15;;;;;;;15.25;3.70;;;12.60;99.90;;;;;;4860788;29;20057;-76
2022/12/24 09:45:04;;;;;;;16.40;3.10;;;12.50;99.90;;;;;;4860184;29;20450;-76
2022/12/24 09:47:42;;;;;;;17.90;4.13;;;12.30;99.90;;;;;;4860725;29;20065;-76
2022/12/24 09:50:30;;;;;;;15.05;3.28;;;12.60;99.90;;;;;;4861692;29;20482;-76
2022/12/24 09:53:00;;;;;;;20.77;3.92;;;12.30;99.90;;;;;;4860385;29;20072;-76
2022/12/24 09:55:31;;;;;;;20.88;3.92;;;12.70;99.90;;;;;;4860698;29;20050;-76
2022/12/24 09:57:59;;;;;;;18.88;3.50;;;12.50;99.90;;;;;;4860843;29;20052;-76
2022/12/24 10:00:34;;;;;;;16.85;3.47;;;12.70;99.90;;;;;;4860585;29;20037;-75
2022/12/24 10:03:00;;;;;;;19.70;3.80;;;12.40;99.90;;;;;;4861443;29;20049;-76
2022/12/24 10:05:33;;;;;;;19.08;3.90;;;12.80;99.90;;;;;;4860579;29;20512;-76
2022/12/24 10:08:11;;;;;;;15.35;3.78;;;12.90;99.90;;;;;;4844961;29;20049;-76
2022/12/24 10:10:50;;;;;;;31.63;5.18;;;12.80;99.90;;;;;;4860319;29;20091;-76
2022/12/24 10:13:35;;;;;;;17.58;3.67;;;12.60;99.90;;;;;;4859842;29;20527;-75
2022/12/24 10:16:22;;;;;;;19.70;4.20;;;13.00;99.90;;;;;;4859835;29;20056;-76
2022/12/24 10:19:09;;;;;;;18.98;3.92;;;12.90;99.90;;;;;;4859828;29;20101;-76
2022/12/24 10:21:52;;;;;;;16.73;3.50;;;12.90;99.90;;;;;;4844325;29;20061;-76
2022/12/24 10:24:24;;;;;;;18.70;3.88;;;12.80;99.90;;;;;;4859203;29;20052;-76
2022/12/24 10:26:58;;;;;;;22.05;4.30;;;13.00;99.90;;;;;;4859496;29;20056;-76
2022/12/24 10:29:29;;;;;;;20.60;4.57;;;13.20;99.90;;;;;;4859726;29;20045;-76
2022/12/24 10:32:22;;;;;;;19.85;3.72;;;12.90;99.90;;;;;;4859336;29;20680;-76
2022/12/24 10:34:55;;;;;;;24.73;4.18;;;13.10;99.90;;;;;;4859411;29;20053;-77
2022/12/24 10:37:27;;;;;;;24.15;3.92;;;13.10;99.90;;;;;;4859682;29;20066;-76
2022/12/24 10:39:57;;;;;;;26.90;4.43;;;13.00;99.90;;;;;;4859303;29;20077;-76
2022/12/24 10:42:34;;;;;;;17.77;3.85;;;13.20;99.90;;;;;;4844850;29;20049;-76
2022/12/24 10:45:01;;;;;;;;;;;13.20;99.90;;;;;;4859402;29;20060;-77
2022/12/24 10:47:29;;;;;;;19.02;3.97;;;13.10;99.90;;;;;;4859268;29;19931;-76
2022/12/24 10:50:09;;;;;;;19.63;3.90;;;13.00;99.90;;;;;;4860679;29;20053;-77
2022/12/24 10:52:39;;;;;;;21.30;3.90;;;13.30;99.90;;;;;;4859470;29;20133;-77
2022/12/24 10:55:11;;;;;;;22.10;3.90;;;13.10;99.90;;;;;;4859288;29;20053;-77
2022/12/24 10:57:37;;;;;;;21.20;4.20;;;12.90;99.90;;;;;;4858480;29;20230;-77
2022/12/24 11:00:05;;;;;;;19.50;4.20;;;12.90;99.90;;;;;;4828030;29;20053;-77
2022/12/24 11:02:32;;;;;;;21.90;4.43;;;12.80;99.90;;;;;;4858649;29;20065;-77
2022/12/24 11:04:59;;;;;;;16.80;3.95;;;12.70;99.90;;;;;;4859008;29;20049;-77
2022/12/24 11:07:26;;;;;;;20.48;3.83;;;12.90;99.90;;;;;;4857915;29;20125;-77
2022/12/24 11:10:03;;;;;;;15.43;3.53;;;12.80;99.90;;;;;;4858373;29;20394;-77
2022/12/24 11:12:39;;;;;;;13.65;3.53;;;12.80;99.90;;;;;;4858928;29;20053;-77
2022/12/24 11:15:22;;;;;;;20.92;4.53;;;12.80;99.90;;;;;;4859270;29;20057;-77
2022/12/24 11:18:03;;;;;;;18.90;4.65;;;12.60;99.90;;;;;;4858900;29;20064;-77
2022/12/24 11:20:31;;;;;;;20.58;4.00;;;12.50;99.90;;;;;;4858310;29;20041;-77
2022/12/24 11:22:58;;;;;;;20.40;4.53;;;12.70;99.90;;;;;;4858730;29;20049;-77
2022/12/24 11:25:33;;;;;;;14.50;3.55;;;12.60;99.90;;;;;;4858709;29;20056;-77
2022/12/24 11:28:18;;;;;;;11.23;2.88;;;12.50;99.90;;;;;;4858389;29;20061;-77
2022/12/24 11:30:59;;;;;;;11.20;2.83;;;12.60;99.90;;;;;;4828825;29;20366;-76
2022/12/24 11:33:25;;;;;;;18.23;4.05;;;12.40;99.90;;;;;;4858697;29;20069;-76
2022/12/24 11:36:00;;;;;;;23.35;3.90;;;12.60;99.90;;;;;;4859337;29;20181;-76
2022/12/24 11:38:27;;;;;;;19.35;3.53;;;12.50;99.90;;;;;;4858429;29;20096;-76
2022/12/24 11:41:10;;;;;;;15.38;3.10;;;12.40;99.90;;;;;;4843503;29;20504;-76
2022/12/24 11:43:50;;;;;;;15.10;3.42;;;12.50;99.90;;;;;;4859340;29;20089;-76
2022/12/24 11:46:35;;;;;;;15.73;3.13;;;12.20;99.90;;;;;;4859292;29;20072;-76
2022/12/24 11:49:25;;;;;;;10.90;2.63;;;12.20;99.90;;;;;;4859573;29;20053;-76
2022/12/24 11:52:09;;;;;;;15.23;2.70;;;12.30;99.90;;;;;;4860174;29;20080;-76
2022/12/24 11:55:11;;;;;;;13.40;2.95;;;12.20;99.90;;;;;;4858980;29;20053;-77
2022/12/24 11:57:52;;;;;;;19.45;3.58;;;12.10;99.90;;;;;;4858203;29;20059;-77
2022/12/24 12:00:18;;;;;;;23.50;3.75;;;12.00;99.90;;;;;;4858623;29;20057;-77
2022/12/24 12:02:48;;;;;;;18.10;3.60;;;12.10;99.90;;;;;;4858620;29;20045;-77
2022/12/24 12:05:25;;;;;;;19.50;3.08;;;11.90;99.90;;;;;;4858031;29;20045;-76
2022/12/24 12:07:56;;;;;;;18.27;3.30;;;12.00;99.90;;;;;;4857594;29;20157;-76
2022/12/24 12:10:30;;;;;;;15.50;2.88;;;11.90;99.90;;;;;;4858575;29;20456;-77
2022/12/24 12:13:02;;;;;;;15.48;3.10;;;11.80;99.90;;;;;;4842464;29;20102;-76
2022/12/24 12:15:40;;;;;;;16.50;3.55;;;11.90;99.90;;;;;;4857851;29;20052;-76
2022/12/24 12:18:12;;;;;;;14.60;3.20;;;11.70;99.90;;;;;;4857939;29;20124;-76
2022/12/24 12:20:45;;;;;;;11.43;2.40;;;11.70;99.90;;;;;;4859161;29;20042;-76
2022/12/24 12:23:16;;;;;;;20.67;3.88;;;11.60;99.90;;;;;;4857608;29;20204;-76
2022/12/24 12:25:59;;;;;;;23.35;3.90;;;11.60;99.90;;;;;;4858155;29;20057;-76
2022/12/24 12:28:31;;;;;;;13.98;3.28;;;11.50;99.90;;;;;;4858666;29;20101;-76
2022/12/24 12:31:17;;;;;;;16.13;3.00;;;11.50;99.90;;;;;;4857789;29;20041;-76
2022/12/24 12:33:58;;;;;;;13.75;2.80;;;11.50;99.90;;;;;;4856760;29;20045;-76
2022/12/24 12:36:44;;;;;;;9.65;2.50;;;11.50;99.90;;;;;;4842296;29;20114;-76
2022/12/24 12:39:10;;;;;;;14.00;2.38;;;11.40;99.90;;;;;;4858203;29;20140;-76
2022/12/24 12:41:45;;;;;;;;;;;11.30;99.90;;;;;;4858154;29;20050;-76
2022/12/24 12:44:35;;;;;;;19.45;3.17;;;11.30;99.90;;;;;;4841723;29;20015;-76
2022/12/24 12:47:18;;;;;;;16.75;3.38;;;11.30;99.90;;;;;;4857898;29;20065;-76
2022/12/24 12:49:59;;;;;;;19.17;3.30;;;11.30;99.90;;;;;;4857732;29;20106;-76
2022/12/24 12:52:53;;;;;;;15.15;3.13;;;11.30;99.90;;;;;;4857454;29;20509;-76
2022/12/24 12:55:36;;;;;;;20.25;4.15;;;11.30;99.90;;;;;;4857202;29;20049;-76
2022/12/24 12:58:07;;;;;;;17.67;3.67;;;11.30;99.90;;;;;;4856924;29;20095;-76
2022/12/24 13:00:39;;;;;;;11.45;2.20;;;11.20;99.90;;;;;;4857285;29;20049;-76
2022/12/24 13:03:28;;;;;;;13.43;2.60;;;11.20;99.90;;;;;;4857398;29;20061;-75